sensor_id;sensor_type;location;lat;lon;timestamp;P1;durP1;ratioP1;P2;durP2;ratioP2
14235;SDS011;7202;50.718;7.072;2022-09-09T00:02:20;4.22;;;0.80;;
14235;SDS011;7202;50.718;7.072;2022-09-09T00:04:55;3.60;;;1.13;;
14235;SDS011;7202;50.718;7.072;2022-09-09T00:07:32;3.00;;;1.02;;
14235;SDS011;7202;50.718;7.072;2022-09-09T00:10:13;3.35;;;0.90;;
14235;SDS011;7202;50.718;7.072;2022-09-09T00:12:48;3.35;;;1.00;;
14235;SDS011;7202;50.718;7.072;2022-09-09T00:15:25;1.95;;;0.82;;
14235;SDS011;7202;50.718;7.072;2022-09-09T00:17:58;2.05;;;0.90;;
14235;SDS011;7202;50.718;7.072;2022-09-09T00:20:34;1.92;;;0.80;;
14235;SDS011;7202;50.718;7.072;2022-09-09T00:23:11;2.58;;;0.88;;
14235;SDS011;7202;50.718;7.072;2022-09-09T00:25:48;2.63;;;1.00;;
14235;SDS011;7202;50.718;7.072;2022-09-09T00:28:22;2.08;;;1.00;;
14235;SDS011;7202;50.718;7.072;2022-09-09T00:30:53;2.30;;;1.00;;
14235;SDS011;7202;50.718;7.072;2022-09-09T00:33:24;2.33;;;0.85;;
14235;SDS011;7202;50.718;7.072;2022-09-09T00:35:56;2.30;;;1.00;;
14235;SDS011;7202;50.718;7.072;2022-09-09T00:38:28;3.60;;;0.70;;
14235;SDS011;7202;50.718;7.072;2022-09-09T00:41:03;2.00;;;0.90;;
14235;SDS011;7202;50.718;7.072;2022-09-09T00:43:37;2.38;;;1.13;;
14235;SDS011;7202;50.718;7.072;2022-09-09T00:46:28;3.33;;;1.02;;
14235;SDS011;7202;50.718;7.072;2022-09-09T00:49:23;1.95;;;0.70;;
14235;SDS011;7202;50.718;7.072;2022-09-09T00:52:05;5.13;;;1.10;;
14235;SDS011;7202;50.718;7.072;2022-09-09T00:54:46;6.85;;;1.10;;
14235;SDS011;7202;50.718;7.072;2022-09-09T00:57:23;1.90;;;0.80;;
14235;SDS011;7202;50.718;7.072;2022-09-09T00:59:57;1.58;;;0.70;;
14235;SDS011;7202;50.718;7.072;2022-09-09T01:02:35;1.80;;;0.80;;
14235;SDS011;7202;50.718;7.072;2022-09-09T01:05:13;1.45;;;0.95;;
14235;SDS011;7202;50.718;7.072;2022-09-09T01:07:50;2.70;;;0.90;;
14235;SDS011;7202;50.718;7.072;2022-09-09T01:10:25;2.72;;;1.00;;
14235;SDS011;7202;50.718;7.072;2022-09-09T01:13:04;1.33;;;0.85;;
14235;SDS011;7202;50.718;7.072;2022-09-09T01:15:42;3.60;;;0.98;;
14235;SDS011;7202;50.718;7.072;2022-09-09T01:18:14;2.55;;;0.90;;
14235;SDS011;7202;50.718;7.072;2022-09-09T01:20:47;1.48;;;0.90;;
14235;SDS011;7202;50.718;7.072;2022-09-09T01:23:33;2.10;;;1.10;;
14235;SDS011;7202;50.718;7.072;2022-09-09T01:26:26;3.90;;;1.33;;
14235;SDS011;7202;50.718;7.072;2022-09-09T01:28:59;1.88;;;1.05;;
14235;SDS011;7202;50.718;7.072;2022-09-09T01:31:35;1.58;;;1.00;;
14235;SDS011;7202;50.718;7.072;2022-09-09T01:34:08;2.42;;;1.10;;
14235;SDS011;7202;50.718;7.072;2022-09-09T01:36:39;5.07;;;1.20;;
14235;SDS011;7202;50.718;7.072;2022-09-09T01:39:11;2.67;;;1.10;;
14235;SDS011;7202;50.718;7.072;2022-09-09T01:41:42;1.88;;;1.13;;
14235;SDS011;7202;50.718;7.072;2022-09-09T01:44:13;4.55;;;0.95;;
14235;SDS011;7202;50.718;7.072;2022-09-09T01:46:44;2.67;;;1.13;;
14235;SDS011;7202;50.718;7.072;2022-09-09T01:49:16;2.33;;;0.85;;
14235;SDS011;7202;50.718;7.072;2022-09-09T01:51:46;2.15;;;1.10;;
14235;SDS011;7202;50.718;7.072;2022-09-09T01:54:20;2.72;;;1.00;;
14235;SDS011;7202;50.718;7.072;2022-09-09T01:56:56;2.22;;;0.90;;
14235;SDS011;7202;50.718;7.072;2022-09-09T01:59:39;2.28;;;1.00;;
14235;SDS011;7202;50.718;7.072;2022-09-09T02:02:17;2.40;;;1.00;;
14235;SDS011;7202;50.718;7.072;2022-09-09T02:05:00;4.22;;;1.20;;
14235;SDS011;7202;50.718;7.072;2022-09-09T02:07:37;2.70;;;1.10;;
14235;SDS011;7202;50.718;7.072;2022-09-09T02:10:21;4.82;;;1.25;;
14235;SDS011;7202;50.718;7.072;2022-09-09T02:13:07;1.92;;;1.10;;
14235;SDS011;7202;50.718;7.072;2022-09-09T02:15:39;4.72;;;1.02;;
14235;SDS011;7202;50.718;7.072;2022-09-09T02:18:13;4.45;;;1.15;;
14235;SDS011;7202;50.718;7.072;2022-09-09T02:20:45;5.20;;;1.13;;
14235;SDS011;7202;50.718;7.072;2022-09-09T02:23:15;2.38;;;1.35;;
14235;SDS011;7202;50.718;7.072;2022-09-09T02:25:47;2.65;;;1.10;;
14235;SDS011;7202;50.718;7.072;2022-09-09T02:28:23;5.47;;;1.23;;
14235;SDS011;7202;50.718;7.072;2022-09-09T02:30:56;2.80;;;1.00;;
14235;SDS011;7202;50.718;7.072;2022-09-09T02:33:33;4.00;;;1.23;;
14235;SDS011;7202;50.718;7.072;2022-09-09T02:36:06;2.47;;;1.10;;
14235;SDS011;7202;50.718;7.072;2022-09-09T02:38:38;2.20;;;1.17;;
14235;SDS011;7202;50.718;7.072;2022-09-09T02:41:13;3.85;;;1.15;;
14235;SDS011;7202;50.718;7.072;2022-09-09T02:43:43;1.00;;;0.80;;
14235;SDS011;7202;50.718;7.072;2022-09-09T02:46:18;3.10;;;1.08;;
14235;SDS011;7202;50.718;7.072;2022-09-09T02:48:59;2.65;;;0.95;;
14235;SDS011;7202;50.718;7.072;2022-09-09T02:51:36;2.70;;;1.15;;
14235;SDS011;7202;50.718;7.072;2022-09-09T02:54:16;3.67;;;1.35;;
14235;SDS011;7202;50.718;7.072;2022-09-09T02:56:51;2.22;;;1.00;;
14235;SDS011;7202;50.718;7.072;2022-09-09T02:59:29;1.45;;;0.82;;
14235;SDS011;7202;50.718;7.072;2022-09-09T03:01:58;4.88;;;1.10;;
14235;SDS011;7202;50.718;7.072;2022-09-09T03:04:27;1.27;;;0.98;;
14235;SDS011;7202;50.718;7.072;2022-09-09T03:06:56;3.88;;;1.27;;
14235;SDS011;7202;50.718;7.072;2022-09-09T03:09:25;4.60;;;0.90;;
14235;SDS011;7202;50.718;7.072;2022-09-09T03:11:55;3.63;;;1.30;;
14235;SDS011;7202;50.718;7.072;2022-09-09T03:14:25;2.55;;;1.20;;
14235;SDS011;7202;50.718;7.072;2022-09-09T03:16:56;3.30;;;1.25;;
14235;SDS011;7202;50.718;7.072;2022-09-09T03:19:30;3.50;;;1.35;;
14235;SDS011;7202;50.718;7.072;2022-09-09T03:21:59;3.22;;;1.23;;
14235;SDS011;7202;50.718;7.072;2022-09-09T03:24:29;3.55;;;1.45;;
14235;SDS011;7202;50.718;7.072;2022-09-09T03:26:58;3.03;;;1.10;;
14235;SDS011;7202;50.718;7.072;2022-09-09T03:29:26;1.95;;;0.90;;
14235;SDS011;7202;50.718;7.072;2022-09-09T03:31:58;3.15;;;0.88;;
14235;SDS011;7202;50.718;7.072;2022-09-09T03:34:27;2.65;;;1.08;;
14235;SDS011;7202;50.718;7.072;2022-09-09T03:36:58;3.90;;;1.40;;
14235;SDS011;7202;50.718;7.072;2022-09-09T03:39:27;5.18;;;1.33;;
14235;SDS011;7202;50.718;7.072;2022-09-09T03:41:58;5.80;;;1.30;;
14235;SDS011;7202;50.718;7.072;2022-09-09T03:44:31;3.28;;;1.35;;
14235;SDS011;7202;50.718;7.072;2022-09-09T03:47:01;3.17;;;1.10;;
14235;SDS011;7202;50.718;7.072;2022-09-09T03:49:30;2.67;;;0.90;;
14235;SDS011;7202;50.718;7.072;2022-09-09T03:51:59;1.95;;;1.00;;
14235;SDS011;7202;50.718;7.072;2022-09-09T03:54:28;1.90;;;0.95;;
14235;SDS011;7202;50.718;7.072;2022-09-09T03:56:57;2.33;;;1.10;;
14235;SDS011;7202;50.718;7.072;2022-09-09T03:59:26;3.53;;;1.10;;
14235;SDS011;7202;50.718;7.072;2022-09-09T04:01:55;3.38;;;1.05;;
14235;SDS011;7202;50.718;7.072;2022-09-09T04:04:27;1.70;;;1.00;;
14235;SDS011;7202;50.718;7.072;2022-09-09T04:06:56;1.48;;;0.80;;
14235;SDS011;7202;50.718;7.072;2022-09-09T04:09:25;1.85;;;0.98;;
14235;SDS011;7202;50.718;7.072;2022-09-09T04:11:53;2.22;;;1.05;;
14235;SDS011;7202;50.718;7.072;2022-09-09T04:14:22;5.13;;;1.45;;
14235;SDS011;7202;50.718;7.072;2022-09-09T04:16:55;2.75;;;1.40;;
14235;SDS011;7202;50.718;7.072;2022-09-09T04:19:25;4.25;;;1.00;;
14235;SDS011;7202;50.718;7.072;2022-09-09T04:21:55;2.58;;;1.25;;
14235;SDS011;7202;50.718;7.072;2022-09-09T04:24:24;7.63;;;1.33;;
14235;SDS011;7202;50.718;7.072;2022-09-09T04:26:54;2.30;;;1.20;;
14235;SDS011;7202;50.718;7.072;2022-09-09T04:29:22;4.35;;;1.17;;
14235;SDS011;7202;50.718;7.072;2022-09-09T04:31:51;3.20;;;1.05;;
14235;SDS011;7202;50.718;7.072;2022-09-09T04:34:20;2.90;;;1.13;;
14235;SDS011;7202;50.718;7.072;2022-09-09T04:36:48;4.57;;;1.23;;
14235;SDS011;7202;50.718;7.072;2022-09-09T04:39:20;3.65;;;1.35;;
14235;SDS011;7202;50.718;7.072;2022-09-09T04:41:48;3.38;;;1.05;;
14235;SDS011;7202;50.718;7.072;2022-09-09T04:44:17;1.88;;;1.02;;
14235;SDS011;7202;50.718;7.072;2022-09-09T04:46:46;2.05;;;1.13;;
14235;SDS011;7202;50.718;7.072;2022-09-09T04:49:15;4.57;;;1.48;;
14235;SDS011;7202;50.718;7.072;2022-09-09T04:51:44;5.47;;;1.52;;
14235;SDS011;7202;50.718;7.072;2022-09-09T04:54:13;4.70;;;1.15;;
14235;SDS011;7202;50.718;7.072;2022-09-09T04:56:44;3.15;;;1.00;;
14235;SDS011;7202;50.718;7.072;2022-09-09T04:59:13;4.78;;;1.98;;
14235;SDS011;7202;50.718;7.072;2022-09-09T05:01:49;6.18;;;1.63;;
14235;SDS011;7202;50.718;7.072;2022-09-09T05:04:18;2.85;;;1.00;;
14235;SDS011;7202;50.718;7.072;2022-09-09T05:06:47;2.80;;;1.25;;
14235;SDS011;7202;50.718;7.072;2022-09-09T05:09:15;3.95;;;1.17;;
14235;SDS011;7202;50.718;7.072;2022-09-09T05:11:47;2.60;;;1.25;;
14235;SDS011;7202;50.718;7.072;2022-09-09T05:14:30;4.15;;;1.10;;
14235;SDS011;7202;50.718;7.072;2022-09-09T05:17:00;2.72;;;1.25;;
14235;SDS011;7202;50.718;7.072;2022-09-09T05:19:28;3.80;;;1.40;;
14235;SDS011;7202;50.718;7.072;2022-09-09T05:21:57;2.22;;;1.00;;
14235;SDS011;7202;50.718;7.072;2022-09-09T05:24:35;3.85;;;1.50;;
14235;SDS011;7202;50.718;7.072;2022-09-09T05:27:06;3.58;;;1.38;;
14235;SDS011;7202;50.718;7.072;2022-09-09T05:29:37;4.03;;;1.27;;
14235;SDS011;7202;50.718;7.072;2022-09-09T05:32:08;4.55;;;1.50;;
14235;SDS011;7202;50.718;7.072;2022-09-09T05:34:43;3.30;;;1.42;;
14235;SDS011;7202;50.718;7.072;2022-09-09T05:37:11;2.17;;;1.17;;
14235;SDS011;7202;50.718;7.072;2022-09-09T05:39:40;2.95;;;1.05;;
14235;SDS011;7202;50.718;7.072;2022-09-09T05:42:10;1.58;;;1.15;;
14235;SDS011;7202;50.718;7.072;2022-09-09T05:44:39;4.60;;;1.63;;
14235;SDS011;7202;50.718;7.072;2022-09-09T05:47:11;4.97;;;1.05;;
14235;SDS011;7202;50.718;7.072;2022-09-09T05:49:42;3.15;;;1.17;;
14235;SDS011;7202;50.718;7.072;2022-09-09T05:52:11;3.45;;;1.30;;
14235;SDS011;7202;50.718;7.072;2022-09-09T05:54:41;2.92;;;1.30;;
14235;SDS011;7202;50.718;7.072;2022-09-09T05:57:11;2.20;;;1.13;;
14235;SDS011;7202;50.718;7.072;2022-09-09T05:59:40;3.90;;;1.58;;
14235;SDS011;7202;50.718;7.072;2022-09-09T06:02:08;3.63;;;1.40;;
14235;SDS011;7202;50.718;7.072;2022-09-09T06:04:38;2.67;;;1.15;;
14235;SDS011;7202;50.718;7.072;2022-09-09T06:07:07;4.65;;;1.30;;
14235;SDS011;7202;50.718;7.072;2022-09-09T06:09:35;5.18;;;1.10;;
14235;SDS011;7202;50.718;7.072;2022-09-09T06:12:07;4.38;;;1.48;;
14235;SDS011;7202;50.718;7.072;2022-09-09T06:14:37;2.53;;;1.02;;
14235;SDS011;7202;50.718;7.072;2022-09-09T06:17:12;14.15;;;1.65;;
14235;SDS011;7202;50.718;7.072;2022-09-09T06:19:40;4.10;;;1.30;;
14235;SDS011;7202;50.718;7.072;2022-09-09T06:22:09;2.95;;;1.10;;
14235;SDS011;7202;50.718;7.072;2022-09-09T06:24:38;5.05;;;1.30;;
14235;SDS011;7202;50.718;7.072;2022-09-09T06:27:07;3.20;;;1.30;;
14235;SDS011;7202;50.718;7.072;2022-09-09T06:29:37;4.25;;;1.42;;
14235;SDS011;7202;50.718;7.072;2022-09-09T06:32:07;6.75;;;1.60;;
14235;SDS011;7202;50.718;7.072;2022-09-09T06:34:36;5.70;;;1.20;;
14235;SDS011;7202;50.718;7.072;2022-09-09T06:37:04;3.72;;;1.50;;
14235;SDS011;7202;50.718;7.072;2022-09-09T06:39:41;8.20;;;1.77;;
14235;SDS011;7202;50.718;7.072;2022-09-09T06:42:10;4.82;;;1.40;;
14235;SDS011;7202;50.718;7.072;2022-09-09T06:44:57;2.10;;;1.10;;
14235;SDS011;7202;50.718;7.072;2022-09-09T06:47:46;4.90;;;1.60;;
14235;SDS011;7202;50.718;7.072;2022-09-09T06:50:15;7.85;;;2.72;;
14235;SDS011;7202;50.718;7.072;2022-09-09T06:52:45;4.07;;;1.17;;
14235;SDS011;7202;50.718;7.072;2022-09-09T06:55:15;3.70;;;1.17;;
14235;SDS011;7202;50.718;7.072;2022-09-09T06:57:44;4.72;;;1.30;;
14235;SDS011;7202;50.718;7.072;2022-09-09T07:00:22;5.00;;;1.17;;
14235;SDS011;7202;50.718;7.072;2022-09-09T07:02:51;4.45;;;1.30;;
14235;SDS011;7202;50.718;7.072;2022-09-09T07:05:20;3.80;;;1.58;;
14235;SDS011;7202;50.718;7.072;2022-09-09T07:07:51;3.97;;;1.35;;
14235;SDS011;7202;50.718;7.072;2022-09-09T07:10:20;4.15;;;1.08;;
14235;SDS011;7202;50.718;7.072;2022-09-09T07:12:50;4.43;;;1.45;;
14235;SDS011;7202;50.718;7.072;2022-09-09T07:15:22;2.83;;;1.30;;
14235;SDS011;7202;50.718;7.072;2022-09-09T07:17:52;5.55;;;1.25;;
14235;SDS011;7202;50.718;7.072;2022-09-09T07:20:21;4.57;;;1.05;;
14235;SDS011;7202;50.718;7.072;2022-09-09T07:22:54;4.00;;;1.30;;
14235;SDS011;7202;50.718;7.072;2022-09-09T07:25:23;2.65;;;1.10;;
14235;SDS011;7202;50.718;7.072;2022-09-09T07:27:53;8.48;;;1.50;;
14235;SDS011;7202;50.718;7.072;2022-09-09T07:30:23;3.67;;;1.38;;
14235;SDS011;7202;50.718;7.072;2022-09-09T07:32:54;4.25;;;1.13;;
14235;SDS011;7202;50.718;7.072;2022-09-09T07:35:24;3.13;;;1.20;;
14235;SDS011;7202;50.718;7.072;2022-09-09T07:37:53;2.90;;;1.27;;
14235;SDS011;7202;50.718;7.072;2022-09-09T07:40:23;3.97;;;1.13;;
14235;SDS011;7202;50.718;7.072;2022-09-09T07:42:52;5.30;;;1.42;;
14235;SDS011;7202;50.718;7.072;2022-09-09T07:45:22;4.93;;;1.60;;
14235;SDS011;7202;50.718;7.072;2022-09-09T07:47:51;3.88;;;1.33;;
14235;SDS011;7202;50.718;7.072;2022-09-09T07:50:20;5.07;;;1.17;;
14235;SDS011;7202;50.718;7.072;2022-09-09T07:52:50;3.88;;;1.40;;
14235;SDS011;7202;50.718;7.072;2022-09-09T07:55:20;5.32;;;1.80;;
14235;SDS011;7202;50.718;7.072;2022-09-09T07:57:50;3.58;;;1.23;;
14235;SDS011;7202;50.718;7.072;2022-09-09T08:00:23;2.90;;;1.25;;
14235;SDS011;7202;50.718;7.072;2022-09-09T08:02:55;3.25;;;1.30;;
14235;SDS011;7202;50.718;7.072;2022-09-09T08:05:24;4.38;;;1.20;;
14235;SDS011;7202;50.718;7.072;2022-09-09T08:07:52;4.53;;;1.20;;
14235;SDS011;7202;50.718;7.072;2022-09-09T08:10:21;6.10;;;1.98;;
14235;SDS011;7202;50.718;7.072;2022-09-09T08:12:52;2.72;;;1.10;;
14235;SDS011;7202;50.718;7.072;2022-09-09T08:15:43;3.63;;;1.27;;
14235;SDS011;7202;50.718;7.072;2022-09-09T08:18:12;6.35;;;1.27;;
14235;SDS011;7202;50.718;7.072;2022-09-09T08:20:41;6.82;;;1.45;;
14235;SDS011;7202;50.718;7.072;2022-09-09T08:23:09;3.05;;;1.00;;
14235;SDS011;7202;50.718;7.072;2022-09-09T08:25:38;4.18;;;1.08;;
14235;SDS011;7202;50.718;7.072;2022-09-09T08:28:06;2.85;;;1.08;;
14235;SDS011;7202;50.718;7.072;2022-09-09T08:30:36;2.92;;;1.10;;
14235;SDS011;7202;50.718;7.072;2022-09-09T08:33:07;4.20;;;0.90;;
14235;SDS011;7202;50.718;7.072;2022-09-09T08:35:37;2.80;;;1.15;;
14235;SDS011;7202;50.718;7.072;2022-09-09T08:38:06;3.83;;;1.27;;
14235;SDS011;7202;50.718;7.072;2022-09-09T08:40:38;3.97;;;1.10;;
14235;SDS011;7202;50.718;7.072;2022-09-09T08:43:16;2.88;;;0.82;;
14235;SDS011;7202;50.718;7.072;2022-09-09T08:45:49;4.57;;;1.40;;
14235;SDS011;7202;50.718;7.072;2022-09-09T08:48:30;6.25;;;1.42;;
14235;SDS011;7202;50.718;7.072;2022-09-09T08:51:11;6.22;;;1.20;;
14235;SDS011;7202;50.718;7.072;2022-09-09T08:53:43;3.88;;;1.10;;
14235;SDS011;7202;50.718;7.072;2022-09-09T08:56:16;2.70;;;1.00;;
14235;SDS011;7202;50.718;7.072;2022-09-09T08:58:53;3.00;;;1.05;;
14235;SDS011;7202;50.718;7.072;2022-09-09T09:01:35;2.72;;;0.80;;
14235;SDS011;7202;50.718;7.072;2022-09-09T09:04:25;3.95;;;0.93;;
14235;SDS011;7202;50.718;7.072;2022-09-09T09:07:04;3.47;;;0.98;;
14235;SDS011;7202;50.718;7.072;2022-09-09T09:09:41;2.42;;;0.80;;
14235;SDS011;7202;50.718;7.072;2022-09-09T09:12:19;1.77;;;0.73;;
14235;SDS011;7202;50.718;7.072;2022-09-09T09:14:51;6.25;;;1.10;;
14235;SDS011;7202;50.718;7.072;2022-09-09T09:17:23;3.95;;;0.88;;
14235;SDS011;7202;50.718;7.072;2022-09-09T09:19:56;7.25;;;1.30;;
14235;SDS011;7202;50.718;7.072;2022-09-09T09:22:28;2.65;;;1.00;;
14235;SDS011;7202;50.718;7.072;2022-09-09T09:25:08;3.38;;;0.68;;
14235;SDS011;7202;50.718;7.072;2022-09-09T09:27:46;2.00;;;0.80;;
14235;SDS011;7202;50.718;7.072;2022-09-09T09:30:26;5.93;;;1.00;;
14235;SDS011;7202;50.718;7.072;2022-09-09T09:33:05;3.50;;;0.80;;
14235;SDS011;7202;50.718;7.072;2022-09-09T09:35:41;3.92;;;1.00;;
14235;SDS011;7202;50.718;7.072;2022-09-09T09:38:16;2.38;;;0.75;;
14235;SDS011;7202;50.718;7.072;2022-09-09T09:41:06;2.58;;;1.00;;
14235;SDS011;7202;50.718;7.072;2022-09-09T09:43:36;4.30;;;1.10;;
14235;SDS011;7202;50.718;7.072;2022-09-09T09:46:18;5.05;;;1.10;;
14235;SDS011;7202;50.718;7.072;2022-09-09T09:48:56;4.35;;;0.90;;
14235;SDS011;7202;50.718;7.072;2022-09-09T09:51:28;3.92;;;1.17;;
14235;SDS011;7202;50.718;7.072;2022-09-09T09:54:07;1.73;;;0.60;;
14235;SDS011;7202;50.718;7.072;2022-09-09T09:56:44;4.95;;;1.00;;
14235;SDS011;7202;50.718;7.072;2022-09-09T09:59:32;4.10;;;1.00;;
14235;SDS011;7202;50.718;7.072;2022-09-09T10:02:16;3.03;;;1.05;;
14235;SDS011;7202;50.718;7.072;2022-09-09T10:05:03;4.65;;;1.25;;
14235;SDS011;7202;50.718;7.072;2022-09-09T10:07:37;4.60;;;0.93;;
14235;SDS011;7202;50.718;7.072;2022-09-09T10:10:08;3.47;;;0.75;;
14235;SDS011;7202;50.718;7.072;2022-09-09T10:12:44;3.55;;;0.80;;
14235;SDS011;7202;50.718;7.072;2022-09-09T10:15:26;1.45;;;0.70;;
14235;SDS011;7202;50.718;7.072;2022-09-09T10:18:05;1.60;;;0.60;;
14235;SDS011;7202;50.718;7.072;2022-09-09T10:20:45;3.20;;;0.80;;
14235;SDS011;7202;50.718;7.072;2022-09-09T10:23:29;2.80;;;0.82;;
14235;SDS011;7202;50.718;7.072;2022-09-09T10:26:14;3.20;;;0.95;;
14235;SDS011;7202;50.718;7.072;2022-09-09T10:29:06;1.70;;;0.82;;
14235;SDS011;7202;50.718;7.072;2022-09-09T10:31:49;5.93;;;1.38;;
14235;SDS011;7202;50.718;7.072;2022-09-09T10:34:32;2.35;;;0.80;;
14235;SDS011;7202;50.718;7.072;2022-09-09T10:37:16;4.35;;;1.17;;
14235;SDS011;7202;50.718;7.072;2022-09-09T10:39:55;2.67;;;0.77;;
14235;SDS011;7202;50.718;7.072;2022-09-09T10:42:33;4.30;;;1.15;;
14235;SDS011;7202;50.718;7.072;2022-09-09T10:45:07;3.97;;;1.20;;
14235;SDS011;7202;50.718;7.072;2022-09-09T10:47:55;3.05;;;1.00;;
14235;SDS011;7202;50.718;7.072;2022-09-09T10:50:42;4.95;;;1.30;;
14235;SDS011;7202;50.718;7.072;2022-09-09T10:53:36;3.13;;;0.88;;
14235;SDS011;7202;50.718;7.072;2022-09-09T10:56:15;3.22;;;1.20;;
14235;SDS011;7202;50.718;7.072;2022-09-09T10:58:47;2.78;;;1.08;;
14235;SDS011;7202;50.718;7.072;2022-09-09T11:01:19;3.35;;;1.00;;
14235;SDS011;7202;50.718;7.072;2022-09-09T11:03:52;4.35;;;1.13;;
14235;SDS011;7202;50.718;7.072;2022-09-09T11:06:26;3.08;;;1.05;;
14235;SDS011;7202;50.718;7.072;2022-09-09T11:08:59;1.98;;;1.05;;
14235;SDS011;7202;50.718;7.072;2022-09-09T11:11:32;2.53;;;0.90;;
14235;SDS011;7202;50.718;7.072;2022-09-09T11:14:09;2.67;;;0.98;;
14235;SDS011;7202;50.718;7.072;2022-09-09T11:16:44;3.88;;;1.00;;
14235;SDS011;7202;50.718;7.072;2022-09-09T11:19:20;4.10;;;1.05;;
14235;SDS011;7202;50.718;7.072;2022-09-09T11:21:54;2.33;;;0.90;;
14235;SDS011;7202;50.718;7.072;2022-09-09T11:24:25;1.70;;;0.73;;
14235;SDS011;7202;50.718;7.072;2022-09-09T11:27:00;1.50;;;0.82;;
14235;SDS011;7202;50.718;7.072;2022-09-09T11:29:40;2.30;;;0.95;;
14235;SDS011;7202;50.718;7.072;2022-09-09T11:35:52;3.22;;;0.82;;
14235;SDS011;7202;50.718;7.072;2022-09-09T11:38:36;0.80;;;0.60;;
14235;SDS011;7202;50.718;7.072;2022-09-09T11:41:12;1.92;;;1.05;;
14235;SDS011;7202;50.718;7.072;2022-09-09T11:43:49;2.20;;;0.82;;
14235;SDS011;7202;50.718;7.072;2022-09-09T11:46:19;3.53;;;0.98;;
14235;SDS011;7202;50.718;7.072;2022-09-09T11:48:57;1.95;;;0.82;;
14235;SDS011;7202;50.718;7.072;2022-09-09T11:51:29;1.65;;;0.80;;
14235;SDS011;7202;50.718;7.072;2022-09-09T11:53:59;2.67;;;0.93;;
14235;SDS011;7202;50.718;7.072;2022-09-09T11:56:29;2.95;;;1.05;;
14235;SDS011;7202;50.718;7.072;2022-09-09T11:59:02;1.52;;;0.60;;
14235;SDS011;7202;50.718;7.072;2022-09-09T12:01:36;2.97;;;0.80;;
14235;SDS011;7202;50.718;7.072;2022-09-09T12:04:13;2.10;;;0.90;;
14235;SDS011;7202;50.718;7.072;2022-09-09T12:07:02;1.80;;;0.60;;
14235;SDS011;7202;50.718;7.072;2022-09-09T12:09:41;1.67;;;0.77;;
14235;SDS011;7202;50.718;7.072;2022-09-09T12:12:27;2.22;;;0.77;;
14235;SDS011;7202;50.718;7.072;2022-09-09T12:15:16;2.38;;;0.70;;
14235;SDS011;7202;50.718;7.072;2022-09-09T12:17:50;4.50;;;0.80;;
14235;SDS011;7202;50.718;7.072;2022-09-09T12:20:20;2.03;;;0.90;;
14235;SDS011;7202;50.718;7.072;2022-09-09T12:23:04;3.00;;;0.70;;
14235;SDS011;7202;50.718;7.072;2022-09-09T12:25:52;4.72;;;1.25;;
14235;SDS011;7202;50.718;7.072;2022-09-09T12:28:27;2.45;;;0.98;;
14235;SDS011;7202;50.718;7.072;2022-09-09T12:31:10;1.83;;;0.85;;
14235;SDS011;7202;50.718;7.072;2022-09-09T12:33:45;2.38;;;0.90;;
14235;SDS011;7202;50.718;7.072;2022-09-09T12:36:18;2.55;;;0.80;;
14235;SDS011;7202;50.718;7.072;2022-09-09T12:38:49;1.77;;;0.82;;
14235;SDS011;7202;50.718;7.072;2022-09-09T12:41:19;2.88;;;0.93;;
14235;SDS011;7202;50.718;7.072;2022-09-09T12:43:49;3.40;;;0.85;;
14235;SDS011;7202;50.718;7.072;2022-09-09T12:46:23;1.88;;;0.88;;
14235;SDS011;7202;50.718;7.072;2022-09-09T12:49:00;4.38;;;1.20;;
14235;SDS011;7202;50.718;7.072;2022-09-09T12:51:29;2.75;;;0.95;;
14235;SDS011;7202;50.718;7.072;2022-09-09T12:54:00;1.88;;;0.73;;
14235;SDS011;7202;50.718;7.072;2022-09-09T12:56:30;1.50;;;0.63;;
14235;SDS011;7202;50.718;7.072;2022-09-09T12:59:00;1.20;;;0.77;;
14235;SDS011;7202;50.718;7.072;2022-09-09T13:01:31;2.60;;;1.08;;
14235;SDS011;7202;50.718;7.072;2022-09-09T13:04:01;2.17;;;0.70;;
14235;SDS011;7202;50.718;7.072;2022-09-09T13:06:31;2.40;;;0.80;;
14235;SDS011;7202;50.718;7.072;2022-09-09T13:09:01;2.15;;;0.80;;
14235;SDS011;7202;50.718;7.072;2022-09-09T13:11:31;5.00;;;1.13;;
14235;SDS011;7202;50.718;7.072;2022-09-09T13:14:05;0.93;;;0.50;;
14235;SDS011;7202;50.718;7.072;2022-09-09T13:16:36;2.83;;;0.70;;
14235;SDS011;7202;50.718;7.072;2022-09-09T13:19:10;2.67;;;1.30;;
14235;SDS011;7202;50.718;7.072;2022-09-09T13:21:43;2.05;;;0.90;;
14235;SDS011;7202;50.718;7.072;2022-09-09T13:24:22;2.50;;;0.90;;
14235;SDS011;7202;50.718;7.072;2022-09-09T13:26:55;9.07;;;0.80;;
14235;SDS011;7202;50.718;7.072;2022-09-09T13:29:25;2.47;;;1.05;;
14235;SDS011;7202;50.718;7.072;2022-09-09T13:31:55;1.67;;;0.85;;
14235;SDS011;7202;50.718;7.072;2022-09-09T13:34:33;1.45;;;0.80;;
14235;SDS011;7202;50.718;7.072;2022-09-09T13:37:03;1.50;;;0.60;;
14235;SDS011;7202;50.718;7.072;2022-09-09T13:39:33;1.30;;;0.70;;
14235;SDS011;7202;50.718;7.072;2022-09-09T13:42:04;2.60;;;0.60;;
14235;SDS011;7202;50.718;7.072;2022-09-09T13:44:34;2.83;;;0.50;;
14235;SDS011;7202;50.718;7.072;2022-09-09T13:47:06;1.50;;;0.65;;
14235;SDS011;7202;50.718;7.072;2022-09-09T13:49:46;0.80;;;0.47;;
14235;SDS011;7202;50.718;7.072;2022-09-09T13:52:16;1.65;;;0.60;;
14235;SDS011;7202;50.718;7.072;2022-09-09T13:54:47;1.92;;;0.80;;
14235;SDS011;7202;50.718;7.072;2022-09-09T13:57:17;0.90;;;0.55;;
14235;SDS011;7202;50.718;7.072;2022-09-09T13:59:47;2.03;;;0.63;;
14235;SDS011;7202;50.718;7.072;2022-09-09T14:02:35;2.47;;;0.50;;
14235;SDS011;7202;50.718;7.072;2022-09-09T14:05:05;1.10;;;0.40;;
14235;SDS011;7202;50.718;7.072;2022-09-09T14:07:34;1.52;;;0.50;;
14235;SDS011;7202;50.718;7.072;2022-09-09T14:10:04;2.80;;;0.57;;
14235;SDS011;7202;50.718;7.072;2022-09-09T14:12:34;3.33;;;0.68;;
14235;SDS011;7202;50.718;7.072;2022-09-09T14:15:03;3.00;;;0.70;;
14235;SDS011;7202;50.718;7.072;2022-09-09T14:17:33;5.60;;;0.68;;
14235;SDS011;7202;50.718;7.072;2022-09-09T14:20:05;1.10;;;0.47;;
14235;SDS011;7202;50.718;7.072;2022-09-09T14:22:36;2.00;;;0.50;;
14235;SDS011;7202;50.718;7.072;2022-09-09T14:25:06;1.38;;;0.47;;
14235;SDS011;7202;50.718;7.072;2022-09-09T14:27:35;0.70;;;0.40;;
14235;SDS011;7202;50.718;7.072;2022-09-09T14:30:06;1.25;;;0.60;;
14235;SDS011;7202;50.718;7.072;2022-09-09T14:32:36;0.65;;;0.40;;
14235;SDS011;7202;50.718;7.072;2022-09-09T14:35:06;1.17;;;0.57;;
14235;SDS011;7202;50.718;7.072;2022-09-09T14:37:35;2.25;;;0.50;;
14235;SDS011;7202;50.718;7.072;2022-09-09T14:40:06;2.25;;;0.68;;
14235;SDS011;7202;50.718;7.072;2022-09-09T14:42:35;1.27;;;0.47;;
14235;SDS011;7202;50.718;7.072;2022-09-09T14:45:04;1.73;;;0.60;;
14235;SDS011;7202;50.718;7.072;2022-09-09T14:47:33;1.05;;;0.50;;
14235;SDS011;7202;50.718;7.072;2022-09-09T14:50:02;2.40;;;1.13;;
14235;SDS011;7202;50.718;7.072;2022-09-09T14:52:33;1.92;;;0.70;;
14235;SDS011;7202;50.718;7.072;2022-09-09T14:55:01;0.73;;;0.40;;
14235;SDS011;7202;50.718;7.072;2022-09-09T14:57:30;1.73;;;0.60;;
14235;SDS011;7202;50.718;7.072;2022-09-09T14:59:59;1.38;;;0.90;;
14235;SDS011;7202;50.718;7.072;2022-09-09T15:02:27;0.47;;;0.40;;
14235;SDS011;7202;50.718;7.072;2022-09-09T15:04:56;2.63;;;0.68;;
14235;SDS011;7202;50.718;7.072;2022-09-09T15:07:25;2.35;;;0.70;;
14235;SDS011;7202;50.718;7.072;2022-09-09T15:09:56;2.40;;;0.50;;
14235;SDS011;7202;50.718;7.072;2022-09-09T15:12:25;1.25;;;0.50;;
14235;SDS011;7202;50.718;7.072;2022-09-09T15:14:54;2.55;;;0.50;;
14235;SDS011;7202;50.718;7.072;2022-09-09T15:17:23;2.38;;;0.50;;
14235;SDS011;7202;50.718;7.072;2022-09-09T15:19:53;1.58;;;0.60;;
14235;SDS011;7202;50.718;7.072;2022-09-09T15:22:22;0.47;;;0.38;;
14235;SDS011;7202;50.718;7.072;2022-09-09T15:24:51;1.25;;;0.52;;
14235;SDS011;7202;50.718;7.072;2022-09-09T15:27:21;1.98;;;0.60;;
14235;SDS011;7202;50.718;7.072;2022-09-09T15:29:50;1.75;;;0.50;;
14235;SDS011;7202;50.718;7.072;2022-09-09T15:32:19;1.02;;;0.52;;
14235;SDS011;7202;50.718;7.072;2022-09-09T15:34:47;1.70;;;0.60;;
14235;SDS011;7202;50.718;7.072;2022-09-09T15:37:19;1.08;;;0.55;;
14235;SDS011;7202;50.718;7.072;2022-09-09T15:39:48;2.28;;;0.55;;
14235;SDS011;7202;50.718;7.072;2022-09-09T15:42:17;2.08;;;0.70;;